Fontana, California
Current Conditions -  °F | °C
As of 10:53 AM on Thursday 30 Oct 2014 (Local Time) from KONT Reporting Station
Broken Clouds Broken Clouds  
Wind Chill: 23°   Ceiling: 25000
Heat Index: 23°   Visibility: 10mi
Dew Point:   Wind: 3mph
Humidity: 33%   Direction: 220°SW
Pressure: 30"   Gusts: NA
Location:  34.1°N, 117.43°W
Report Text: KONT 301753Z 22003KT 10SM SCT170 BKN250 23/06 A3000 RMK AO2 SLP148 VIRGA S T02280056 10233 20150 50001
Loading
Personal Weather Stations






























Interactive Weather Map New forecast layout! Learn more

10-Day Weather Forecast

Advertisements
Track Severe Weather on mobile